Time;durP1;ratioP1;P1;durP2;ratioP2;P2;SDS_P1;SDS_P2;PMS_P1;PMS_P2;Temp;Humidity;BMP_temperature;BMP_pressure;BME280_temperature;BME280_humidity;BME280_pressure;Samples;Min_cycle;Max_cycle;Signal;HPM_P1;HPM_P2
2023/08/19 00:00:20;;;;;;;16.80;15.70;;;23.20;99.90;;;;;;5053421;28;20460;-75
2023/08/19 00:02:50;;;;;;;16.23;15.43;;;23.20;99.90;;;;;;5054369;28;20448;-75
2023/08/19 00:05:17;;;;;;;17.13;16.13;;;23.30;99.90;;;;;;5054127;28;20490;-75
2023/08/19 00:07:44;;;;;;;14.77;14.17;;;23.10;99.90;;;;;;5054416;28;20860;-75
2023/08/19 00:10:11;;;;;;;15.37;14.60;;;23.10;99.90;;;;;;5054368;28;20950;-75
2023/08/19 00:12:37;;;;;;;17.23;15.60;;;23.10;99.90;;;;;;5054382;28;20443;-75
2023/08/19 00:15:07;;;;;;;16.90;15.90;;;23.00;99.90;;;;;;5054363;28;20600;-76
2023/08/19 00:17:34;;;;;;;16.43;15.37;;;23.00;99.90;;;;;;5054313;28;20452;-76
2023/08/19 00:20:01;;;;;;;16.87;15.87;;;22.90;99.90;;;;;;5040366;28;20923;-78
2023/08/19 00:22:28;;;;;;;16.03;14.73;;;22.90;99.90;;;;;;5034030;28;20449;-76
2023/08/19 00:24:54;;;;;;;15.90;14.77;;;22.90;99.90;;;;;;5033956;28;20500;-74
2023/08/19 00:27:21;;;;;;;17.33;16.23;;;22.90;99.90;;;;;;5033986;28;20448;-74
2023/08/19 00:29:48;;;;;;;17.40;16.60;;;22.80;99.90;;;;;;5034142;28;20464;-75
2023/08/19 00:32:18;;;;;;;16.80;15.80;;;22.80;99.90;;;;;;5033929;28;20939;-75
2023/08/19 00:34:45;;;;;;;17.23;16.30;;;22.80;99.90;;;;;;5033911;28;20444;-75
2023/08/19 00:37:12;;;;;;;16.67;15.60;;;22.60;99.90;;;;;;5034098;28;20452;-75
2023/08/19 00:39:38;;;;;;;17.17;16.07;;;22.60;99.90;;;;;;5033644;28;20487;-75
2023/08/19 00:42:08;;;;;;;15.97;15.20;;;22.60;99.90;;;;;;5033870;28;20461;-75
2023/08/19 00:44:35;;;;;;;15.20;14.60;;;22.50;99.90;;;;;;5033633;28;20484;-75
2023/08/19 00:47:02;;;;;;;16.43;15.60;;;22.50;99.90;;;;;;5033636;28;20468;-76
2023/08/19 00:49:31;;;;;;;16.20;15.23;;;22.40;99.90;;;;;;5033460;28;20535;-75
2023/08/19 00:51:58;;;;;;;16.17;15.37;;;22.30;99.90;;;;;;5033583;28;21075;-76
2023/08/19 00:54:27;;;;;;;16.63;15.73;;;22.30;99.90;;;;;;5033628;28;20954;-75
2023/08/19 00:56:53;;;;;;;16.57;15.77;;;22.30;99.90;;;;;;5033495;28;20449;-76
2023/08/19 00:59:20;;;;;;;18.13;17.03;;;22.30;99.90;;;;;;5033468;28;20453;-76
2023/08/19 01:01:50;;;;;;;15.77;14.70;;;22.30;99.90;;;;;;5033374;28;20456;-75
2023/08/19 01:04:19;;;;;;;15.83;15.03;;;22.30;99.90;;;;;;5033188;28;20497;-76
2023/08/19 01:06:55;;;;;;;18.40;17.50;;;22.30;99.90;;;;;;5033600;28;20453;-76
2023/08/19 01:09:32;;;;;;;16.97;16.17;;;22.20;99.90;;;;;;5033418;28;20449;-75
2023/08/19 01:12:06;;;;;;;18.10;17.30;;;22.00;99.90;;;;;;5033417;28;20551;-75
2023/08/19 01:14:42;;;;;;;18.37;17.47;;;21.90;99.90;;;;;;5033165;28;20467;-74
2023/08/19 01:17:10;;;;;;;17.83;16.70;;;21.80;99.90;;;;;;5033165;28;20460;-74
2023/08/19 01:19:38;;;;;;;17.90;17.03;;;21.80;99.90;;;;;;5032919;28;20453;-74
2023/08/19 01:22:09;;;;;;;19.03;18.23;;;21.80;99.90;;;;;;5032825;28;20529;-75
2023/08/19 01:24:37;;;;;;;15.97;15.37;;;21.80;99.90;;;;;;5032765;28;20488;-75
2023/08/19 01:27:05;;;;;;;16.90;16.00;;;21.60;99.90;;;;;;5032892;28;20793;-74
2023/08/19 01:29:32;;;;;;;17.17;16.00;;;21.60;99.90;;;;;;5032703;28;20455;-76
2023/08/19 01:31:59;;;;;;;17.67;16.80;;;21.60;99.90;;;;;;5032751;28;20951;-76
2023/08/19 01:34:26;;;;;;;16.33;15.53;;;21.70;99.90;;;;;;5032789;28;20452;-79
2023/08/19 01:36:59;;;;;;;16.63;15.83;;;21.70;99.90;;;;;;5032843;28;20454;-77
2023/08/19 01:39:28;;;;;;;17.53;16.33;;;21.80;99.90;;;;;;5032549;28;20574;-77
2023/08/19 01:41:56;;;;;;;16.17;15.37;;;21.80;99.90;;;;;;5032715;28;20452;-77
2023/08/19 01:44:24;;;;;;;17.33;16.43;;;21.70;99.90;;;;;;5032541;28;20832;-77
2023/08/19 01:46:51;;;;;;;17.17;15.97;;;21.70;99.90;;;;;;5032728;28;20810;-77
2023/08/19 01:49:17;;;;;;;18.23;17.03;;;21.70;99.90;;;;;;5032510;28;20800;-78
2023/08/19 01:51:44;;;;;;;17.60;16.60;;;21.60;99.90;;;;;;5032463;28;20836;-80
2023/08/19 01:54:11;;;;;;;18.30;17.30;;;21.60;99.90;;;;;;5032300;28;20997;-78
2023/08/19 01:56:38;;;;;;;17.23;16.43;;;21.60;99.90;;;;;;5032417;28;20471;-79
2023/08/19 01:59:06;;;;;;;16.53;15.63;;;21.60;99.90;;;;;;5032344;28;20460;-78
2023/08/19 02:01:32;;;;;;;17.07;16.13;;;21.60;99.90;;;;;;5032366;28;20441;-78
2023/08/19 02:03:59;;;;;;;17.50;16.47;;;21.60;99.90;;;;;;5032047;28;20457;-78
2023/08/19 02:06:26;;;;;;;17.60;16.50;;;21.60;99.90;;;;;;5032169;28;20965;-79
2023/08/19 02:08:53;;;;;;;17.03;16.10;;;21.60;99.90;;;;;;5032801;28;20453;-79
2023/08/19 02:11:20;;;;;;;17.90;17.00;;;21.60;99.90;;;;;;5032144;28;20441;-77
2023/08/19 02:13:47;;;;;;;19.53;18.30;;;21.60;99.90;;;;;;5032181;28;20502;-78
2023/08/19 02:16:15;;;;;;;17.27;16.33;;;21.50;99.90;;;;;;5032265;28;20485;-78
2023/08/19 02:18:42;;;;;;;18.40;17.20;;;21.50;99.90;;;;;;5032099;28;20480;-78
2023/08/19 02:21:08;;;;;;;19.53;18.13;;;21.50;99.90;;;;;;5031788;28;20452;-78
2023/08/19 02:23:35;;;;;;;18.50;17.60;;;21.40;99.90;;;;;;5031954;28;20465;-78
2023/08/19 02:26:02;;;;;;;18.60;17.27;;;21.50;99.90;;;;;;5031936;28;20461;-78
2023/08/19 02:28:28;;;;;;;18.27;17.30;;;21.50;99.90;;;;;;5032478;28;20946;-78
2023/08/19 02:31:01;;;;;;;18.77;17.97;;;21.50;99.90;;;;;;5033245;28;20456;-80
2023/08/19 02:33:29;;;;;;;18.37;17.47;;;21.50;99.90;;;;;;5032652;28;20452;-81
2023/08/19 02:35:56;;;;;;;18.27;17.37;;;21.40;99.90;;;;;;5031721;28;20492;-81
2023/08/19 02:38:23;;;;;;;19.43;18.53;;;21.40;99.90;;;;;;5031739;28;20480;-81
2023/08/19 02:40:50;;;;;;;18.60;17.50;;;21.30;99.90;;;;;;5031783;28;20944;-84
2023/08/19 02:43:17;;;;;;;18.10;17.30;;;21.20;99.90;;;;;;5031786;28;20444;-82
2023/08/19 02:45:44;;;;;;;17.77;16.97;;;21.20;99.90;;;;;;5031461;28;20445;-79
2023/08/19 02:48:11;;;;;;;18.10;17.20;;;21.10;99.90;;;;;;5031642;28;20461;-83
2023/08/19 02:50:39;;;;;;;20.10;18.93;;;21.10;99.90;;;;;;5031380;28;20445;-78
2023/08/19 02:53:05;;;;;;;19.43;18.53;;;21.10;99.90;;;;;;5031527;28;20452;-78
2023/08/19 02:55:32;;;;;;;20.10;19.13;;;21.10;99.90;;;;;;5031491;28;20485;-78
2023/08/19 02:57:59;;;;;;;19.60;18.60;;;21.10;99.90;;;;;;5031352;28;20460;-79
2023/08/19 03:00:27;;;;;;;18.73;17.93;;;21.10;99.90;;;;;;5031646;28;20455;-79
2023/08/19 03:02:54;;;;;;;18.60;17.80;;;21.10;99.90;;;;;;5031562;28;20906;-78
2023/08/19 03:05:21;;;;;;;18.37;17.60;;;21.00;99.90;;;;;;5031754;28;20441;-79
2023/08/19 03:07:49;;;;;;;18.83;18.03;;;21.00;99.90;;;;;;5031610;28;20938;-79
2023/08/19 03:10:16;;;;;;;19.30;18.17;;;21.00;99.90;;;;;;5031528;28;20445;-78
2023/08/19 03:12:42;;;;;;;18.37;17.47;;;21.00;99.90;;;;;;5031355;28;20445;-79
2023/08/19 03:15:09;;;;;;;19.73;18.73;;;21.00;99.90;;;;;;5031362;28;20980;-78
2023/08/19 03:17:36;;;;;;;20.53;19.23;;;21.00;99.90;;;;;;5031064;28;20459;-78
2023/08/19 03:20:03;;;;;;;17.77;16.97;;;20.90;99.90;;;;;;5031141;28;20445;-78
2023/08/19 03:22:29;;;;;;;21.00;19.50;;;20.80;99.90;;;;;;5031010;28;20455;-78
2023/08/19 03:24:58;;;;;;;19.10;18.10;;;20.80;99.90;;;;;;5031090;28;20468;-79
2023/08/19 03:27:24;;;;;;;19.13;18.23;;;20.70;99.90;;;;;;5031159;28;20562;-78
2023/08/19 03:29:51;;;;;;;22.37;20.80;;;20.70;99.90;;;;;;5031357;28;20448;-78
2023/08/19 03:32:18;;;;;;;19.73;18.73;;;20.70;99.90;;;;;;5031121;28;20445;-79
2023/08/19 03:34:44;;;;;;;19.10;18.03;;;20.80;99.90;;;;;;5033008;28;20448;-79
2023/08/19 03:37:11;;;;;;;18.57;17.63;;;20.70;99.90;;;;;;5035046;28;20444;-79
2023/08/19 03:39:38;;;;;;;18.90;18.00;;;20.70;99.90;;;;;;5035179;28;20480;-79
2023/08/19 03:42:06;;;;;;;19.17;18.23;;;20.70;99.90;;;;;;5035049;28;20460;-79
2023/08/19 03:44:33;;;;;;;19.90;18.90;;;20.70;99.90;;;;;;5035143;28;20444;-80
2023/08/19 03:46:59;;;;;;;18.37;17.57;;;20.70;99.90;;;;;;5035020;28;20480;-80
2023/08/19 03:49:26;;;;;;;19.30;18.30;;;20.70;99.90;;;;;;5034979;28;20452;-79
2023/08/19 03:51:53;;;;;;;21.37;20.00;;;20.70;99.90;;;;;;5035220;28;20448;-81
2023/08/19 03:54:20;;;;;;;19.40;18.27;;;20.70;99.90;;;;;;5034954;28;20445;-80
2023/08/19 03:56:46;;;;;;;19.73;18.63;;;20.70;99.90;;;;;;5038475;28;20496;-81
2023/08/19 03:59:16;;;;;;;20.83;19.20;;;20.70;99.90;;;;;;5044017;28;20449;-81
2023/08/19 04:01:42;;;;;;;19.00;18.10;;;20.60;99.90;;;;;;5036598;28;20472;-82
2023/08/19 04:04:09;;;;;;;19.47;18.43;;;20.60;99.90;;;;;;5038077;28;20437;-82
2023/08/19 04:06:36;;;;;;;19.73;18.70;;;20.70;99.90;;;;;;5036796;28;20476;-83
2023/08/19 04:09:04;;;;;;;19.60;18.50;;;20.60;99.90;;;;;;5036288;28;20528;-80
2023/08/19 04:11:31;;;;;;;20.27;19.00;;;20.60;99.90;;;;;;5036575;28;20543;-82
2023/08/19 04:13:57;;;;;;;21.27;20.07;;;20.60;99.90;;;;;;5036390;28;20441;-83
2023/08/19 04:16:25;;;;;;;21.57;20.37;;;20.60;99.90;;;;;;5036369;28;20504;-84
2023/08/19 04:18:52;;;;;;;21.83;20.63;;;20.60;99.90;;;;;;5035707;28;20447;-81
2023/08/19 04:21:19;;;;;;;21.07;19.67;;;20.60;99.90;;;;;;5036434;28;20448;-81
2023/08/19 04:23:46;;;;;;;22.20;20.80;;;20.60;99.90;;;;;;5035285;28;20449;-80
2023/08/19 04:26:12;;;;;;;22.60;21.10;;;20.60;99.90;;;;;;5034716;28;20479;-83
2023/08/19 04:28:39;;;;;;;20.70;19.63;;;20.50;99.90;;;;;;5036425;28;21076;-83
2023/08/19 04:31:07;;;;;;;20.20;19.10;;;20.60;99.90;;;;;;5036125;28;20472;-78
2023/08/19 04:33:36;;;;;;;20.50;19.30;;;20.50;99.90;;;;;;5034403;28;20479;-82
2023/08/19 04:36:03;;;;;;;19.77;18.67;;;20.60;99.90;;;;;;5035431;28;20507;-80
2023/08/19 04:38:30;;;;;;;19.97;18.97;;;20.60;99.90;;;;;;5035085;28;20476;-80
2023/08/19 04:40:59;;;;;;;20.10;18.90;;;20.60;99.90;;;;;;5034658;28;20481;-79
2023/08/19 04:43:26;;;;;;;20.20;19.20;;;20.70;99.90;;;;;;5035337;28;20455;-79
2023/08/19 04:45:54;;;;;;;21.20;20.10;;;20.70;99.90;;;;;;5034473;28;20445;-79
2023/08/19 04:48:21;;;;;;;19.60;18.50;;;20.70;99.90;;;;;;5035324;28;20548;-80
2023/08/19 04:50:49;;;;;;;19.93;18.97;;;20.70;99.90;;;;;;5035670;28;20553;-81
2023/08/19 04:53:16;;;;;;;23.17;21.03;;;20.70;99.90;;;;;;5035179;28;20453;-79
2023/08/19 04:55:43;;;;;;;20.57;19.40;;;20.70;99.90;;;;;;5035115;28;21024;-79
2023/08/19 04:58:10;;;;;;;20.20;19.10;;;20.80;99.90;;;;;;5034741;28;20441;-80
2023/08/19 05:00:37;;;;;;;21.73;20.27;;;20.80;99.90;;;;;;5034653;28;20445;-80
2023/08/19 05:03:05;;;;;;;19.70;18.70;;;20.80;99.90;;;;;;5034304;28;20927;-81
2023/08/19 05:05:31;;;;;;;18.27;17.43;;;20.80;99.90;;;;;;5029270;28;20676;-78
2023/08/19 05:07:59;;;;;;;20.47;19.27;;;20.90;99.90;;;;;;5034392;28;20947;-81
2023/08/19 05:10:26;;;;;;;19.90;18.70;;;20.90;99.90;;;;;;5031422;28;20463;-75
2023/08/19 05:12:54;;;;;;;20.33;19.33;;;20.90;99.90;;;;;;5032285;28;20448;-77
2023/08/19 05:15:21;;;;;;;20.27;19.27;;;20.90;99.90;;;;;;5032964;28;20982;-77
2023/08/19 05:17:48;;;;;;;20.50;19.40;;;21.20;99.90;;;;;;5032924;28;20465;-77
2023/08/19 05:20:14;;;;;;;19.67;18.57;;;21.60;99.90;;;;;;5032891;28;20449;-77
2023/08/19 05:22:41;;;;;;;19.00;17.93;;;21.90;99.90;;;;;;5032251;28;20449;-77
2023/08/19 05:25:09;;;;;;;17.73;16.90;;;22.10;99.90;;;;;;5032549;28;20841;-77
2023/08/19 05:27:36;;;;;;;18.87;17.87;;;22.30;99.90;;;;;;5032946;28;20444;-77
2023/08/19 05:30:07;;;;;;;17.87;16.87;;;22.50;99.90;;;;;;5032795;28;20443;-78
2023/08/19 05:32:33;;;;;;;18.60;17.60;;;22.70;99.90;;;;;;5032573;28;20939;-77
2023/08/19 05:35:00;;;;;;;18.47;17.67;;;22.90;99.90;;;;;;5032507;28;20456;-78
2023/08/19 05:37:27;;;;;;;18.70;17.60;;;23.00;99.90;;;;;;5032702;28;20861;-76
2023/08/19 05:39:53;;;;;;;18.00;16.70;;;23.10;99.90;;;;;;5032433;28;20472;-76
2023/08/19 05:42:21;;;;;;;20.23;18.97;;;23.30;99.90;;;;;;5032438;28;20785;-77
2023/08/19 05:44:48;;;;;;;17.50;16.60;;;23.40;99.90;;;;;;5032540;28;20456;-77
2023/08/19 05:47:15;;;;;;;17.23;16.27;;;23.50;99.90;;;;;;5032446;28;20449;-76
2023/08/19 05:49:42;;;;;;;21.03;19.60;;;23.60;99.90;;;;;;5032240;28;20455;-76
2023/08/19 05:52:08;;;;;;;18.90;17.80;;;23.80;99.90;;;;;;5032420;28;20449;-76
2023/08/19 05:54:35;;;;;;;17.73;16.93;;;24.00;99.90;;;;;;5032213;28;20445;-76
2023/08/19 05:57:02;;;;;;;17.53;16.73;;;24.30;99.90;;;;;;5031398;28;20477;-77
2023/08/19 05:59:30;;;;;;;17.80;16.87;;;24.60;99.90;;;;;;5032488;28;20779;-76
2023/08/19 06:01:56;;;;;;;17.00;16.10;;;24.90;99.90;;;;;;5032400;28;20453;-77
2023/08/19 06:04:23;;;;;;;17.20;16.20;;;25.00;99.90;;;;;;5032738;28;20445;-77
2023/08/19 06:06:50;;;;;;;16.80;16.03;;;25.20;99.90;;;;;;5032399;28;20449;-77
2023/08/19 06:09:16;;;;;;;16.17;15.37;;;25.20;99.90;;;;;;5032393;28;20453;-75
2023/08/19 06:11:50;;;;;;;16.37;15.57;;;25.30;99.90;;;;;;5032518;28;20445;-76
2023/08/19 06:14:20;;;;;;;18.40;17.40;;;25.40;99.90;;;;;;5029050;28;20464;-76
2023/08/19 06:16:48;;;;;;;16.60;15.60;;;25.30;99.90;;;;;;5026715;28;20906;-76
2023/08/19 06:19:15;;;;;;;16.17;15.20;;;25.30;99.90;;;;;;5031917;28;20456;-75
2023/08/19 06:21:42;;;;;;;16.10;15.30;;;25.30;99.90;;;;;;5031830;28;20951;-77
2023/08/19 06:24:09;;;;;;;16.50;15.50;;;25.40;99.90;;;;;;5031565;28;20453;-76
2023/08/19 06:26:36;;;;;;;17.30;16.30;;;25.40;99.90;;;;;;5031601;28;20874;-75
2023/08/19 06:29:03;;;;;;;17.17;15.70;;;25.60;99.90;;;;;;5031527;28;20540;-75
2023/08/19 06:31:30;;;;;;;17.57;16.37;;;25.90;99.90;;;;;;5031616;28;20437;-76
2023/08/19 06:33:59;;;;;;;16.47;15.30;;;26.20;99.90;;;;;;5031424;28;20803;-76
2023/08/19 06:36:28;;;;;;;17.00;16.10;;;26.50;99.90;;;;;;5031629;28;20488;-75
2023/08/19 06:39:04;;;;;;;15.23;14.53;;;26.90;99.90;;;;;;5031190;28;20535;-74
2023/08/19 06:41:34;;;;;;;16.20;15.40;;;27.10;99.90;;;;;;5031174;28;20477;-76
2023/08/19 06:44:03;;;;;;;15.20;14.50;;;27.60;99.90;;;;;;5031089;28;20804;-75
2023/08/19 06:46:31;;;;;;;15.30;14.40;;;28.00;99.90;;;;;;5031453;28;20800;-76
2023/08/19 06:49:00;;;;;;;15.93;14.33;;;28.10;99.90;;;;;;5031247;28;20452;-78
2023/08/19 06:51:27;;;;;;;16.17;15.17;;;28.30;99.90;;;;;;5031757;28;20873;-77
2023/08/19 06:53:54;;;;;;;17.80;16.33;;;28.40;99.30;;;;;;5029613;28;20449;-77
2023/08/19 06:56:27;;;;;;;16.23;15.53;;;28.20;99.60;;;;;;5031373;28;20517;-77
2023/08/19 06:59:03;;;;;;;16.50;15.40;;;28.60;99.50;;;;;;5031706;28;20453;-77
2023/08/19 07:01:31;;;;;;;15.20;14.30;;;28.80;98.40;;;;;;5030966;28;21527;-78
2023/08/19 07:04:02;;;;;;;15.43;14.63;;;29.00;97.60;;;;;;5037508;28;20452;-77
2023/08/19 07:06:32;;;;;;;16.57;15.80;;;29.10;97.80;;;;;;5031283;28;20444;-78
2023/08/19 07:09:01;;;;;;;14.90;14.03;;;29.50;97.00;;;;;;5030978;28;20445;-78
2023/08/19 07:11:29;;;;;;;15.07;14.37;;;29.90;95.90;;;;;;5030961;28;20548;-77
2023/08/19 07:13:56;;;;;;;15.60;14.53;;;30.10;95.50;;;;;;5032165;28;20444;-77
2023/08/19 07:16:24;;;;;;;16.73;15.83;;;30.20;96.00;;;;;;5032927;28;20854;-78
2023/08/19 07:18:55;;;;;;;15.97;14.57;;;30.90;93.80;;;;;;5032128;28;20457;-77
2023/08/19 07:21:24;;;;;;;14.93;14.17;;;30.70;93.40;;;;;;5030766;28;20506;-77
2023/08/19 07:23:54;;;;;;;14.93;14.10;;;30.50;93.30;;;;;;5030897;28;20534;-77
2023/08/19 07:26:25;;;;;;;15.17;14.47;;;30.30;93.50;;;;;;5030640;28;20982;-76
2023/08/19 07:28:52;;;;;;;14.63;13.93;;;30.20;94.10;;;;;;5030843;28;20449;-76
2023/08/19 07:31:21;;;;;;;16.37;15.07;;;30.50;93.50;;;;;;5030801;28;20794;-76
2023/08/19 07:33:48;;;;;;;14.73;13.73;;;30.80;93.40;;;;;;5030519;28;20453;-77
2023/08/19 07:36:15;;;;;;;15.87;15.07;;;31.20;92.70;;;;;;5030645;28;20507;-77
2023/08/19 07:38:45;;;;;;;15.40;14.60;;;31.10;92.20;;;;;;5030283;28;20480;-77
2023/08/19 07:41:12;;;;;;;15.63;14.73;;;31.10;92.60;;;;;;5030619;28;20448;-77
2023/08/19 07:43:39;;;;;;;15.23;14.40;;;31.30;92.40;;;;;;5030487;28;21014;-76
2023/08/19 07:46:05;;;;;;;15.87;15.17;;;31.30;92.40;;;;;;5030748;28;20455;-78
2023/08/19 07:48:32;;;;;;;15.30;14.47;;;31.80;91.90;;;;;;5030561;28;20452;-77
2023/08/19 07:50:59;;;;;;;17.17;15.93;;;32.40;91.20;;;;;;5030687;28;20449;-77
2023/08/19 07:53:25;;;;;;;17.47;16.23;;;32.90;90.30;;;;;;5030477;28;20448;-77
2023/08/19 07:55:53;;;;;;;16.17;15.27;;;33.20;88.60;;;;;;5030439;28;20449;-76
2023/08/19 07:58:20;;;;;;;16.03;15.17;;;33.40;89.10;;;;;;5030310;28;21021;-77
2023/08/19 08:00:47;;;;;;;16.20;15.20;;;33.40;88.30;;;;;;5030410;28;20854;-78
2023/08/19 08:03:14;;;;;;;17.10;16.10;;;33.70;87.70;;;;;;5030349;28;20457;-77
2023/08/19 08:05:41;;;;;;;16.70;15.80;;;33.90;86.50;;;;;;5030366;28;20460;-77
2023/08/19 08:08:07;;;;;;;16.77;15.97;;;33.70;86.30;;;;;;5030338;28;20445;-77
2023/08/19 08:10:34;;;;;;;15.83;15.03;;;33.80;85.80;;;;;;5030270;28;20810;-77
2023/08/19 08:13:03;;;;;;;17.80;16.80;;;33.90;86.10;;;;;;5030301;28;20429;-76
2023/08/19 08:15:30;;;;;;;17.00;16.10;;;34.60;83.80;;;;;;5030280;28;20475;-76
2023/08/19 08:17:57;;;;;;;16.00;15.23;;;34.90;82.40;;;;;;5030143;28;20600;-76
2023/08/19 08:20:24;;;;;;;15.40;14.50;;;34.90;81.40;;;;;;5031646;28;20445;-76
2023/08/19 08:22:50;;;;;;;15.90;15.10;;;34.80;81.30;;;;;;5033918;28;20445;-77
2023/08/19 08:25:17;;;;;;;16.63;15.33;;;34.60;80.80;;;;;;5033994;28;20464;-76
2023/08/19 08:27:45;;;;;;;15.40;14.30;;;34.30;81.50;;;;;;5033939;28;20448;-77
2023/08/19 08:30:13;;;;;;;15.63;14.33;;;34.40;82.40;;;;;;5033887;28;20452;-77
2023/08/19 08:32:40;;;;;;;16.23;15.33;;;34.70;79.80;;;;;;5033631;28;20441;-78
2023/08/19 08:35:07;;;;;;;16.37;15.47;;;35.00;78.70;;;;;;5033745;28;20796;-78
2023/08/19 08:37:34;;;;;;;18.17;16.50;;;34.70;78.40;;;;;;5033590;28;20506;-78
2023/08/19 08:40:01;;;;;;;16.10;15.30;;;34.50;79.00;;;;;;5033483;28;20538;-76
2023/08/19 08:42:28;;;;;;;15.80;14.80;;;34.60;78.90;;;;;;5033793;28;20449;-76
2023/08/19 08:44:55;;;;;;;18.43;17.30;;;34.60;78.80;;;;;;5033748;28;20445;-77
2023/08/19 08:47:24;;;;;;;17.90;16.63;;;34.80;78.50;;;;;;5033434;28;20449;-76
2023/08/19 08:49:52;;;;;;;16.53;15.43;;;34.70;78.80;;;;;;5033512;28;20448;-77
2023/08/19 08:52:21;;;;;;;15.03;14.00;;;34.80;78.90;;;;;;5033429;28;20449;-77
2023/08/19 08:54:52;;;;;;;17.50;16.27;;;34.90;79.10;;;;;;5033433;28;20835;-76
2023/08/19 08:57:20;;;;;;;18.10;16.97;;;35.00;78.70;;;;;;5033228;28;20492;-77
2023/08/19 08:59:47;;;;;;;16.27;15.43;;;34.90;78.20;;;;;;5033360;28;20445;-78
2023/08/19 09:02:16;;;;;;;16.77;15.73;;;35.00;78.20;;;;;;5033203;28;20448;-77
2023/08/19 09:04:44;;;;;;;15.53;14.83;;;35.30;76.60;;;;;;5033116;28;20456;-77
2023/08/19 09:07:16;;;;;;;18.30;14.77;;;35.60;75.50;;;;;;5033088;28;20959;-77
2023/08/19 09:09:46;;;;;;;16.80;15.90;;;35.90;75.00;;;;;;5033436;28;20445;-77
2023/08/19 09:12:13;;;;;;;15.13;14.53;;;35.90;73.60;;;;;;5032924;28;20441;-77
2023/08/19 09:14:42;;;;;;;16.53;15.53;;;36.30;73.10;;;;;;5033179;28;20453;-77
2023/08/19 09:17:10;;;;;;;16.87;16.07;;;36.10;72.30;;;;;;5032891;28;20576;-77
2023/08/19 09:19:38;;;;;;;17.10;15.90;;;35.80;72.20;;;;;;5032750;28;20452;-77
2023/08/19 09:22:20;;;;;;;17.33;16.23;;;36.50;70.50;;;;;;5032952;28;20890;-78
2023/08/19 09:24:47;;;;;;;19.47;18.27;;;37.10;69.80;;;;;;5032722;28;20472;-78
2023/08/19 09:27:17;;;;;;;18.47;17.17;;;37.40;67.50;;;;;;5032810;28;20441;-77
2023/08/19 09:29:48;;;;;;;17.30;16.20;;;37.50;66.70;;;;;;5032829;28;21146;-79
2023/08/19 09:32:15;;;;;;;17.10;16.23;;;37.50;65.70;;;;;;5031427;28;20950;-77
2023/08/19 09:34:42;;;;;;;16.53;15.70;;;37.40;64.90;;;;;;5032624;28;20449;-77
2023/08/19 09:37:10;;;;;;;17.23;16.53;;;37.50;64.60;;;;;;5033798;28;20481;-77
2023/08/19 09:39:38;;;;;;;15.83;15.10;;;37.60;64.40;;;;;;5033319;28;20483;-77
2023/08/19 09:42:05;;;;;;;17.07;16.00;;;37.50;63.50;;;;;;5033542;28;20449;-78
2023/08/19 09:44:32;;;;;;;16.43;15.60;;;37.30;64.00;;;;;;5033220;28;20940;-78
2023/08/19 09:47:03;;;;;;;17.80;16.83;;;37.70;64.60;;;;;;5033265;28;20456;-78
2023/08/19 09:49:30;;;;;;;17.13;16.43;;;38.00;62.20;;;;;;5032705;28;20445;-78
2023/08/19 09:51:57;;;;;;;15.80;14.83;;;38.30;62.70;;;;;;5033275;28;20498;-78
2023/08/19 09:54:24;;;;;;;17.47;16.57;;;38.50;60.20;;;;;;5033122;28;20460;-77
2023/08/19 09:56:56;;;;;;;18.63;17.47;;;38.40;60.10;;;;;;5033132;28;20967;-78
2023/08/19 09:59:22;;;;;;;16.57;15.87;;;38.60;59.80;;;;;;5035069;28;20449;-78
2023/08/19 10:01:51;;;;;;;17.83;16.93;;;38.90;59.50;;;;;;5033138;28;20456;-79
2023/08/19 10:04:18;;;;;;;17.70;16.47;;;38.60;59.40;;;;;;5032896;28;20546;-78
2023/08/19 10:06:47;;;;;;;18.00;17.20;;;38.50;59.30;;;;;;5032542;28;20440;-78
2023/08/19 10:09:17;;;;;;;17.90;16.60;;;38.60;59.70;;;;;;5032519;28;20448;-78
2023/08/19 10:11:46;;;;;;;17.23;15.90;;;39.10;58.70;;;;;;5033645;28;20453;-77
2023/08/19 10:14:15;;;;;;;19.30;18.40;;;38.70;57.90;;;;;;5032655;28;20544;-78
2023/08/19 10:16:46;;;;;;;19.20;18.30;;;39.20;57.30;;;;;;5033165;28;20449;-79
2023/08/19 10:19:17;;;;;;;18.53;17.60;;;39.80;56.70;;;;;;5027831;28;20501;-78
2023/08/19 10:21:47;;;;;;;19.47;18.57;;;40.10;55.70;;;;;;5032643;28;20448;-78
2023/08/19 10:24:14;;;;;;;18.60;17.50;;;40.10;55.80;;;;;;5032329;28;20659;-77
2023/08/19 10:26:41;;;;;;;17.10;16.17;;;40.10;55.40;;;;;;5025377;28;20817;-77
2023/08/19 10:29:08;;;;;;;17.43;16.43;;;39.50;55.20;;;;;;5032599;28;20440;-78
2023/08/19 10:31:37;;;;;;;19.57;18.57;;;39.70;55.00;;;;;;5032375;28;20448;-78
2023/08/19 10:34:11;;;;;;;21.43;20.13;;;40.20;54.00;;;;;;5032310;28;20449;-78
2023/08/19 10:36:39;;;;;;;19.00;18.00;;;41.10;52.80;;;;;;5032023;28;20447;-79
2023/08/19 10:39:15;;;;;;;19.40;18.43;;;40.80;52.50;;;;;;5031144;28;20581;-78
2023/08/19 10:41:42;;;;;;;18.40;17.50;;;41.20;51.40;;;;;;5022621;28;20441;-79
2023/08/19 10:44:11;;;;;;;19.93;18.93;;;41.50;50.80;;;;;;5019337;28;20809;-79
2023/08/19 10:46:41;;;;;;;19.53;18.63;;;41.60;50.20;;;;;;5013725;28;20452;-79
2023/08/19 10:49:12;;;;;;;19.97;18.80;;;42.50;49.40;;;;;;5012144;28;20472;-79
2023/08/19 10:51:47;;;;;;;18.87;17.77;;;42.60;48.20;;;;;;5011893;28;20460;-79
2023/08/19 10:54:14;;;;;;;19.33;18.43;;;42.90;47.60;;;;;;5011969;28;20481;-79
2023/08/19 10:56:51;;;;;;;19.30;18.10;;;42.90;47.10;;;;;;5011781;28;20203;-80
2023/08/19 10:59:19;;;;;;;18.57;17.70;;;42.90;46.70;;;;;;5011618;28;20722;-77
2023/08/19 11:01:47;;;;;;;18.83;18.03;;;42.40;47.10;;;;;;5012941;28;20451;-78
2023/08/19 11:04:14;;;;;;;21.27;20.07;;;43.20;45.40;;;;;;5021339;28;20194;-78
2023/08/19 11:06:40;;;;;;;22.52;21.42;;;44.40;43.90;;;;;;5019878;28;20560;-77
2023/08/19 11:09:07;;;;;;;21.90;20.95;;;44.80;43.30;;;;;;5021070;28;20221;-77
2023/08/19 11:11:34;;;;;;;19.38;18.60;;;45.70;41.40;;;;;;5021261;28;20333;-77
2023/08/19 11:14:02;;;;;;;21.70;20.52;;;46.60;40.40;;;;;;5019489;28;20198;-78
2023/08/19 11:16:28;;;;;;;20.25;19.30;;;46.10;38.20;;;;;;5020908;28;20194;-77
2023/08/19 11:18:57;;;;;;;20.38;19.48;;;45.00;40.60;;;;;;5021341;28;20289;-77
2023/08/19 11:21:25;;;;;;;20.98;19.73;;;44.80;41.60;;;;;;5019716;28;20256;-77
2023/08/19 11:23:52;;;;;;;20.20;19.23;;;44.90;41.90;;;;;;5020160;28;20197;-77
2023/08/19 11:26:19;;;;;;;20.45;19.40;;;45.30;41.30;;;;;;5021388;28;20217;-77
2023/08/19 11:28:46;;;;;;;20.23;19.40;;;45.90;39.80;;;;;;5019849;28;20217;-77
2023/08/19 11:31:12;;;;;;;23.58;22.58;;;46.60;38.80;;;;;;5020258;28;20202;-77
2023/08/19 11:33:41;;;;;;;21.52;20.33;;;46.70;38.70;;;;;;5021431;28;20588;-78
2023/08/19 11:36:09;;;;;;;21.73;20.63;;;46.80;38.10;;;;;;5014374;28;20230;-78
2023/08/19 11:38:36;;;;;;;20.25;19.27;;;46.10;38.40;;;;;;5016426;28;20233;-76
2023/08/19 11:41:04;;;;;;;20.77;19.73;;;46.30;37.20;;;;;;5010683;28;20712;-77
2023/08/19 11:43:44;;;;;;;21.08;20.00;;;46.50;36.40;;;;;;5011130;28;20556;-77
2023/08/19 11:46:11;;;;;;;20.60;19.70;;;46.80;36.30;;;;;;5010690;28;20251;-78
2023/08/19 11:48:38;;;;;;;21.15;20.30;;;46.30;36.20;;;;;;5011798;28;20380;-78
2023/08/19 11:51:12;;;;;;;19.73;18.90;;;45.40;36.70;;;;;;5021026;28;20225;-77
2023/08/19 11:53:40;;;;;;;20.17;19.15;;;45.20;37.30;;;;;;5020006;28;20195;-77
2023/08/19 11:56:06;;;;;;;21.77;20.60;;;44.80;37.10;;;;;;5022085;28;20194;-77
2023/08/19 11:58:42;;;;;;;21.00;19.98;;;46.10;36.60;;;;;;5022637;28;20190;-77
2023/08/19 12:01:09;;;;;;;20.23;19.13;;;46.50;35.50;;;;;;5022525;28;20202;-78
2023/08/19 12:03:35;;;;;;;19.30;18.60;;;46.00;35.70;;;;;;5024112;28;20190;-78
2023/08/19 12:06:02;;;;;;;19.05;18.00;;;45.80;36.00;;;;;;5023779;28;20207;-77
2023/08/19 12:08:32;;;;;;;22.15;21.00;;;46.00;36.00;;;;;;5022178;28;20616;-78
2023/08/19 12:10:59;;;;;;;20.42;19.52;;;45.20;35.60;;;;;;5023571;28;20197;-77
2023/08/19 12:13:28;;;;;;;19.50;18.63;;;44.70;36.90;;;;;;5023932;28;20265;-78
2023/08/19 12:15:55;;;;;;;20.05;19.05;;;45.70;36.20;;;;;;5022523;28;20191;-78
2023/08/19 12:18:22;;;;;;;21.70;20.73;;;45.80;36.30;;;;;;5023357;28;20190;-79
2023/08/19 12:20:49;;;;;;;20.63;19.77;;;45.80;36.40;;;;;;5021844;28;20661;-78
2023/08/19 12:23:16;;;;;;;20.77;19.98;;;46.30;37.10;;;;;;5013964;28;20209;-79
2023/08/19 12:25:52;;;;;;;19.13;18.42;;;46.60;37.00;;;;;;5013804;28;20237;-79
2023/08/19 12:28:19;;;;;;;21.75;20.83;;;46.10;37.70;;;;;;5013745;28;20247;-79
2023/08/19 12:30:45;;;;;;;20.35;19.58;;;46.00;36.90;;;;;;5013836;28;20210;-79